Medicine Lake, MT

8:35 AM MDT on July 06, 2015 (GMT -0600)
MesoWest | | Change Station
CLOSE
Current Station
Personal Weather Station
Location: Medicine Lake, MT
Elevation: 2105 ft
Nearby Weather Stations

Elev 2105 ft 48.52 °N, 104.43 °W | Updated 32 minutes ago

Clear
Clear
57 °F
Feels Like 57 °F
N
0
Wind Variable Wind from North
Gusts 0.0 mph

Today
High -- | Low -- °F
--% Chance of Precip.
Yesterday
High -- | Low -- °F
Precip. -- in
5:03 AM 9:01 PM
Waning Gibbous, 75% visible
Pressure 30.18 in
Visibility 4.0 miles
Clouds Mostly Cloudy 4500 ft
Dew Point 52 °F
Humidity 82%
Rainfall in
Snow Depth Not available.
UV 1 out of 12
Pollen 4.70 out of 12
Air Quality Not available.
Flu Activity Not available.
METAR KISN 061352Z AUTO 03009KT 4SM HZ BKN045 14/11 A3019 RMK AO2 SLP220 T01440111

More Conditions Fewer Conditions

Pressure 30.18 in
Visibility 4.0 miles
Clouds Mostly Cloudy 4500 ft
Dew Point 52 °F
Humidity 82%
Rainfall in
Snow Depth Not available.
UV 1 out of 12
Pollen 4.70 out of 12
Air Quality Not available.
Flu Activity Not available.
METAR KISN 061352Z AUTO 03009KT 4SM HZ BKN045 14/11 A3019 RMK AO2 SLP220 T01440111

More Conditions Fewer Conditions

10-Day Weather Forecast

×

Almanac

Astronomy

Jul. 06, 2015 Rise Set
Actual Time
Civil Twilight
Nautical Twilight
Astronomical Twilight
Moon
Length of Visible Light
Length of Day
Tomorrow will be .
, % of the Moon is Illuminated

Today's Extremes

State Highs State Lows

Community

WunderPhotos

Upload Photos

1,835,560 photos uploaded!

WunderBlogs® & News

Nearby

Air Quality

  Air Quality AQ Index Pollutant
Not available.

Snow Depth

Station Depth Elevation

Earthquake Activity

City Distance Mag. Time & Date
Minimum magnitude displayed is 2.5.

Coastal Water Temperatures

Place Temperature

Stations

Nearby Weather Stations

Station Location Temp. Windchill Dew Point Humidity Wind Precip. Elev Updated Type